Time;durP1;ratioP1;P1;durP2;ratioP2;P2;SDS_P1;SDS_P2;PMS_P1;PMS_P2;Temp;Humidity;BMP_temperature;BMP_pressure;BME280_temperature;BME280_humidity;BME280_pressure;Samples;Min_cycle;Max_cycle;Signal;HPM_P1;HPM_P2
2022/03/18 00:01:50;;;;;;;15.53;8.00;;;;;;;0.85;85.63;98554.91;5117147;28;20489;-38
2022/03/18 00:04:17;;;;;;;9.90;5.93;;;;;;;0.89;85.82;98564.16;5117522;28;20445;-37
2022/03/18 00:06:44;;;;;;;10.50;6.40;;;;;;;0.88;85.34;98558.09;5117166;28;20474;-38
2022/03/18 00:09:12;;;;;;;10.80;6.47;;;;;;;0.84;83.82;98555.88;5117128;28;20438;-38
2022/03/18 00:11:39;;;;;;;12.17;8.23;;;;;;;0.84;83.20;98561.09;5117065;28;20448;-37
2022/03/18 00:14:06;;;;;;;7.43;5.30;;;;;;;0.86;83.45;98553.94;5117009;28;20445;-38
2022/03/18 00:16:35;;;;;;;9.60;6.00;;;;;;;0.90;83.74;98561.41;5117321;28;20441;-36
2022/03/18 00:19:02;;;;;;;9.00;6.00;;;;;;;0.92;83.95;98562.09;5116872;28;20446;-37
2022/03/18 00:21:30;;;;;;;7.87;5.67;;;;;;;0.91;84.44;98551.78;5116835;28;20494;-36
2022/03/18 00:23:58;;;;;;;11.17;5.70;;;;;;;0.91;84.72;98557.03;5117172;28;20438;-37
2022/03/18 00:26:25;;;;;;;10.47;5.43;;;;;;;0.92;85.08;98548.19;5117174;28;20469;-37
2022/03/18 00:28:52;;;;;;;5.70;4.90;;;;;;;0.93;85.41;98555.91;5116723;28;20442;-38
2022/03/18 00:31:20;;;;;;;8.83;6.90;;;;;;;0.95;85.60;98556.63;5116641;28;20449;-38
2022/03/18 00:33:49;;;;;;;15.80;7.67;;;;;;;0.94;85.54;98556.75;5116619;28;20444;-37
2022/03/18 00:36:16;;;;;;;10.30;6.33;;;;;;;0.90;85.78;98565.81;5116606;28;20530;-38
2022/03/18 00:38:43;;;;;;;10.40;7.53;;;;;;;0.72;86.01;98536.84;5116901;28;20456;-37
2022/03/18 00:41:11;;;;;;;14.00;7.20;;;;;;;0.84;86.59;98566.31;5116332;28;20525;-37
2022/03/18 00:43:39;;;;;;;16.40;8.57;;;;;;;0.86;86.80;98569.63;5116474;28;20522;-37
2022/03/18 00:46:06;;;;;;;14.60;7.10;;;;;;;0.82;86.57;98564.69;5116398;28;20533;-38
2022/03/18 00:54:05;;;;;;;6.10;5.20;;;;;;;0.74;86.57;98569.72;5116430;28;20398;-38
2022/03/18 00:56:32;;;;;;;9.53;5.63;;;;;;;0.67;86.27;98580.84;5116441;28;20503;-37
2022/03/18 00:58:59;;;;;;;8.03;5.90;;;;;;;0.64;85.85;98570.66;5116530;28;20444;-37
2022/03/18 01:01:28;;;;;;;6.30;5.30;;;;;;;0.60;85.63;98575.28;5116102;28;20492;-38
2022/03/18 01:03:55;;;;;;;16.47;8.10;;;;;;;0.56;84.83;98579.13;5116060;28;20438;-38
2022/03/18 01:06:24;;;;;;;7.27;5.27;;;;;;;0.44;83.54;98585.41;5116038;28;20442;-38
2022/03/18 01:08:51;;;;;;;11.50;6.07;;;;;;;0.39;83.85;98581.38;5116252;28;20442;-37
2022/03/18 01:11:18;;;;;;;6.90;4.47;;;;;;;0.32;82.37;98577.63;5115943;28;20438;-37
2022/03/18 01:13:45;;;;;;;7.37;5.10;;;;;;;0.31;82.05;98581.19;5115788;28;20563;-38
2022/03/18 01:16:13;;;;;;;7.40;3.90;;;;;;;0.31;82.08;98578.56;5115812;28;20495;-38
2022/03/18 01:18:40;;;;;;;7.77;4.47;;;;;;;0.30;82.00;98584.78;5115806;28;20913;-38
2022/03/18 01:21:07;;;;;;;6.57;4.37;;;;;;;0.27;80.70;98587.63;5115963;28;20524;-38
2022/03/18 01:23:36;;;;;;;3.80;3.20;;;;;;;0.23;80.21;98588.81;5116045;28;20457;-38
2022/03/18 01:26:03;;;;;;;8.23;4.67;;;;;;;0.19;79.76;98576.97;5115645;28;20933;-38
2022/03/18 01:28:31;;;;;;;7.83;4.23;;;;;;;0.15;78.68;98580.78;5115907;28;20449;-38
2022/03/18 01:30:58;;;;;;;8.00;5.50;;;;;;;0.10;77.41;98593.41;5115852;28;20503;-38
2022/03/18 01:33:25;;;;;;;9.93;5.73;;;;;;;0.08;77.42;98595.31;5115449;28;20473;-38
2022/03/18 01:35:53;;;;;;;11.40;5.17;;;;;;;0.08;77.37;98595.31;5115642;28;20446;-38
2022/03/18 01:38:20;;;;;;;8.93;4.30;;;;;;;0.09;76.49;98579.53;5115381;28;20446;-38
2022/03/18 01:40:49;;;;;;;5.23;4.37;;;;;;;0.07;76.38;98580.63;5115625;28;20497;-38
2022/03/18 01:43:16;;;;;;;7.30;4.03;;;;;;;-0.04;75.26;98578.88;5115294;28;20449;-38
2022/03/18 01:45:44;;;;;;;5.73;4.33;;;;;;;-0.16;74.81;98588.53;5115265;28;20479;-37
2022/03/18 01:48:11;;;;;;;9.87;4.60;;;;;;;-0.21;74.76;98586.28;5115186;28;20438;-38
2022/03/18 01:50:40;;;;;;;5.63;3.83;;;;;;;-0.22;74.79;98584.63;5115019;28;20442;-37
2022/03/18 01:53:10;;;;;;;12.20;5.53;;;;;;;-0.21;75.33;98585.47;5115101;28;20487;-38
2022/03/18 01:55:37;;;;;;;9.17;4.00;;;;;;;-0.22;75.26;98597.69;5115005;28;20477;-38
2022/03/18 01:58:06;;;;;;;9.20;4.50;;;;;;;-0.23;74.69;98592.59;5115308;28;20438;-38
2022/03/18 02:00:33;;;;;;;8.10;4.40;;;;;;;-0.27;73.92;98597.22;5114863;28;20537;-38
2022/03/18 02:03:01;;;;;;;8.40;3.50;;;;;;;-0.29;73.56;98598.31;5114418;28;20461;-38
2022/03/18 02:05:28;;;;;;;7.70;3.97;;;;;;;-0.26;74.21;98603.28;5115197;28;20445;-37
2022/03/18 02:07:56;;;;;;;7.20;3.60;;;;;;;-0.24;74.98;98606.59;5114806;28;20449;-38
2022/03/18 02:10:23;;;;;;;5.20;4.30;;;;;;;-0.22;75.50;98607.28;5115080;28;20521;-37
2022/03/18 02:12:50;;;;;;;6.67;3.40;;;;;;;-0.21;75.78;98611.59;5114821;28;20992;-38
2022/03/18 02:15:19;;;;;;;5.13;3.80;;;;;;;-0.22;75.90;98599.47;5114647;28;20849;-38
2022/03/18 02:17:46;;;;;;;7.20;4.53;;;;;;;-0.22;76.06;98609.91;5114631;28;20522;-37
2022/03/18 02:20:14;;;;;;;7.70;4.50;;;;;;;-0.21;76.53;98604.56;5114525;28;20445;-37
2022/03/18 02:22:43;;;;;;;6.87;3.73;;;;;;;-0.23;75.27;98610.88;5114430;28;20531;-37
2022/03/18 02:25:12;;;;;;;6.40;3.97;;;;;;;-0.25;75.31;98610.16;5114441;28;20438;-37
2022/03/18 02:27:41;;;;;;;6.60;3.30;;;;;;;-0.25;75.87;98610.16;5114447;28;20481;-36
2022/03/18 02:30:10;;;;;;;4.40;3.30;;;;;;;-0.46;75.35;98587.44;5114360;28;20442;-37
2022/03/18 02:32:37;;;;;;;6.43;3.97;;;;;;;-0.32;74.69;98619.41;5114350;28;20474;-37
2022/03/18 02:35:06;;;;;;;6.20;4.07;;;;;;;-0.37;74.90;98613.75;5114255;28;20533;-38
2022/03/18 02:37:33;;;;;;;6.07;3.70;;;;;;;-0.39;75.89;98618.25;5114219;28;20899;-37
2022/03/18 02:40:02;;;;;;;4.37;3.17;;;;;;;-0.39;76.35;98621.69;5114617;28;20445;-37
2022/03/18 02:42:29;;;;;;;6.33;4.00;;;;;;;-0.46;76.43;98610.09;5114442;28;20875;-38
2022/03/18 02:44:57;;;;;;;5.83;4.03;;;;;;;-0.54;75.91;98610.69;5114219;28;20843;-38
2022/03/18 02:47:25;;;;;;;6.67;4.03;;;;;;;-0.67;76.61;98600.44;5114125;28;20447;-37
2022/03/18 02:49:52;;;;;;;4.57;3.93;;;;;;;-0.57;76.90;98616.16;5114462;28;20521;-39
2022/03/18 02:52:19;;;;;;;6.57;3.43;;;;;;;-0.63;76.77;98621.88;5113906;28;20441;-37
2022/03/18 02:54:47;;;;;;;8.80;3.60;;;;;;;-0.84;76.79;98612.19;5114062;28;20449;-37
2022/03/18 02:57:16;;;;;;;9.07;4.37;;;;;;;-0.87;77.55;98625.44;5114345;28;20514;-38
2022/03/18 02:59:43;;;;;;;7.80;4.17;;;;;;;-0.91;78.19;98629.22;5113930;28;20438;-38
2022/03/18 03:02:12;;;;;;;9.67;4.53;;;;;;;-0.93;78.31;98638.13;5107159;28;20903;-38
2022/03/18 03:07:58;;;;;;;7.03;4.33;;;;;;;-0.96;78.67;98647.03;5113820;28;20445;-38
2022/03/18 03:10:11;;;;;;;7.27;4.97;;;;;;;-1.00;79.81;98647.38;5104162;28;20426;-39
2022/03/18 03:12:40;;;;;;;9.70;4.30;;;;;;;-1.00;79.53;98656.03;5093266;28;20467;-38
2022/03/18 03:15:08;;;;;;;7.93;5.07;;;;;;;-0.96;80.15;98661.84;5093155;28;20478;-38
2022/03/18 03:17:35;;;;;;;10.37;4.43;;;;;;;-0.98;79.87;98667.16;5093401;28;20443;-40
2022/03/18 03:20:02;;;;;;;10.40;4.57;;;;;;;-0.98;80.19;98661.13;5093619;28;20443;-39
2022/03/18 03:22:30;;;;;;;4.10;3.73;;;;;;;-1.00;79.96;98663.03;5093566;28;20511;-38
2022/03/18 03:24:58;;;;;;;5.83;3.37;;;;;;;-1.03;80.45;98661.50;5093257;28;20530;-39
2022/03/18 03:27:30;;;;;;;5.77;5.20;;;;;;;-0.99;80.86;98670.75;5093294;28;20859;-39
2022/03/18 03:30:00;;;;;;;5.03;3.33;;;;;;;-0.99;80.86;98678.56;5093667;28;20423;-39
2022/03/18 03:32:28;;;;;;;4.83;4.27;;;;;;;-0.99;81.01;98680.31;5093685;28;20446;-38
2022/03/18 03:34:57;;;;;;;6.70;5.00;;;;;;;-1.04;81.30;98681.50;5093627;28;20446;-40
2022/03/18 03:37:25;;;;;;;8.13;4.53;;;;;;;-1.05;81.62;98694.66;5093494;28;20481;-39
2022/03/18 03:39:53;;;;;;;9.30;5.90;;;;;;;-1.08;81.66;98689.66;5093198;28;20439;-39
2022/03/18 03:42:21;;;;;;;15.83;6.43;;;;;;;-1.15;81.43;98693.69;5093071;28;20985;-39
2022/03/18 03:44:48;;;;;;;10.97;5.47;;;;;;;-1.29;81.32;98698.19;5093108;28;20443;-38
2022/03/18 03:47:17;;;;;;;9.20;5.40;;;;;;;-1.35;82.05;98696.03;5093135;28;20466;-39
2022/03/18 03:49:45;;;;;;;13.77;8.67;;;;;;;-1.39;82.32;98691.16;5093449;28;20466;-39
2022/03/18 03:52:17;;;;;;;12.97;8.13;;;;;;;-1.39;82.91;98691.97;5093337;28;20471;-41
2022/03/18 04:03:18;;;;;;;10.20;6.40;;;;;;;-1.79;83.46;98705.31;5091845;28;20479;-39
2022/03/18 04:05:48;;;;;;;33.57;10.70;;;;;;;-1.72;84.33;98705.69;5090622;28;20450;-40
2022/03/18 04:10:56;;;;;;;16.80;5.07;;;;;;;-1.84;84.22;98717.84;5092785;28;20438;-39
2022/03/18 04:13:24;;;;;;;8.47;4.37;;;;;;;-1.92;84.28;98705.38;5092758;28;20565;-39
2022/03/18 04:15:51;;;;;;;15.87;5.90;;;;;;;-1.92;84.72;98714.97;5092789;28;20485;-39
2022/03/18 04:18:18;;;;;;;13.13;5.70;;;;;;;-1.96;84.68;98724.75;5092537;28;20439;-39
2022/03/18 04:20:47;;;;;;;13.50;6.83;;;;;;;-1.98;84.75;98720.63;5091954;28;20873;-38
2022/03/18 04:23:14;;;;;;;15.10;4.80;;;;;;;-2.04;84.70;98721.03;5093044;28;20982;-38
2022/03/18 04:25:41;;;;;;;9.10;5.70;;;;;;;-1.98;84.84;98728.41;5093019;28;20443;-39
2022/03/18 04:28:09;;;;;;;10.93;6.43;;;;;;;-2.00;85.04;98727.69;5096420;28;20439;-38
2022/03/18 04:30:36;;;;;;;11.10;8.40;;;;;;;-1.88;84.95;98714.63;5096370;28;20471;-38
2022/03/18 04:33:04;;;;;;;16.63;8.03;;;;;;;-1.80;84.92;98734.94;5095509;28;20453;-38
2022/03/18 04:35:32;;;;;;;26.77;10.20;;;;;;;-1.70;84.70;98720.31;5096201;28;20439;-37
2022/03/18 04:38:00;;;;;;;27.27;12.00;;;;;;;-1.61;84.61;98715.34;5096254;28;20447;-38
2022/03/18 04:40:28;;;;;;;19.57;9.40;;;;;;;-1.50;84.09;98725.81;5096204;28;20952;-38
2022/03/18 04:42:55;;;;;;;17.63;7.00;;;;;;;-1.40;83.67;98729.41;5096018;28;20486;-37
2022/03/18 04:45:23;;;;;;;18.33;6.70;;;;;;;-1.24;82.63;98742.97;5096091;28;20453;-39
2022/03/18 04:47:50;;;;;;;7.70;5.97;;;;;;;-1.03;82.04;98737.09;5096019;28;20454;-38
2022/03/18 04:50:17;;;;;;;9.03;7.50;;;;;;;-0.83;80.80;98725.97;5095291;28;20439;-40
2022/03/18 04:52:45;;;;;;;17.43;7.57;;;;;;;-0.61;80.01;98740.00;5095866;28;20778;-39
2022/03/18 04:55:13;;;;;;;16.00;5.53;;;;;;;-0.32;78.83;98748.19;5095748;28;20525;-38
2022/03/18 04:57:40;;;;;;;10.87;4.90;;;;;;;0.05;77.80;98744.47;5095995;28;20512;-39
2022/03/18 05:00:09;;;;;;;19.60;6.70;;;;;;;0.44;75.96;98752.66;5095708;28;20439;-38
2022/03/18 05:02:37;;;;;;;9.10;5.43;;;;;;;0.76;73.18;98763.13;5095577;28;20487;-38
2022/03/18 05:05:04;;;;;;;14.63;5.30;;;;;;;1.13;72.07;98755.66;5095584;28;20442;-39
2022/03/18 05:07:31;;;;;;;6.07;4.97;;;;;;;1.37;68.32;98767.63;5095897;28;20450;-39
2022/03/18 05:09:59;;;;;;;10.83;5.20;;;;;;;1.45;67.34;98759.97;5095377;28;20530;-39
2022/03/18 05:12:27;;;;;;;6.50;3.70;;;;;;;1.78;68.04;98763.25;5095500;28;20573;-36
2022/03/18 05:14:55;;;;;;;16.43;5.10;;;;;;;2.20;66.66;98777.06;5095696;28;20769;-36
2022/03/18 05:17:22;;;;;;;17.80;6.63;;;;;;;2.61;65.90;98780.41;5095434;28;20439;-37
2022/03/18 05:19:50;;;;;;;14.73;6.97;;;;;;;2.98;64.41;98776.28;5095317;28;20946;-36
2022/03/18 05:22:17;;;;;;;27.40;12.30;;;;;;;3.28;63.27;98777.91;5095196;28;20989;-36
2022/03/18 05:24:45;;;;;;;93.80;40.27;;;;;;;3.60;63.32;98777.53;5095147;28;20845;-36
2022/03/18 05:27:12;;;;;;;49.33;28.13;;;;;;;3.96;62.53;98785.56;5095080;28;20443;-36
2022/03/18 05:29:41;;;;;;;91.23;40.37;;;;;;;4.33;61.95;98794.38;5095420;28;20489;-37
2022/03/18 05:48:37;;;;;;;196.77;79.17;;;;;;;5.78;55.42;98812.50;5173358;27;20531;-38
2022/03/18 05:51:05;;;;;;;40.53;19.87;;;;;;;6.05;53.67;98814.16;5173140;27;20436;-38
2022/03/18 05:53:32;;;;;;;42.00;19.50;;;;;;;6.17;52.31;98815.53;5173224;27;20478;-38
2022/03/18 05:58:45;;;;;;;13.57;8.10;;;;;;;6.54;51.62;98820.44;5173063;27;20441;-38
2022/03/18 06:01:12;;;;;;;35.17;15.90;;;;;;;6.49;52.96;98820.09;5173231;27;20440;-38
2022/03/18 06:03:41;;;;;;;28.10;16.20;;;;;;;6.64;52.78;98822.94;5173695;27;20439;-39
2022/03/18 06:06:09;;;;;;;14.43;8.10;;;;;;;6.85;51.79;98822.47;5172716;27;20961;-38
2022/03/18 06:14:05;;;;;;;12.87;8.27;;;;;;;7.25;48.24;98828.78;5172931;27;20506;-37
2022/03/18 06:16:32;;;;;;;8.33;6.27;;;;;;;7.18;47.58;98833.06;5172967;27;20450;-38
2022/03/18 06:19:01;;;;;;;18.47;8.07;;;;;;;7.05;45.04;98836.19;5172539;27;20518;-39
2022/03/18 06:21:28;;;;;;;14.77;6.97;;;;;;;6.91;44.78;98842.13;5172774;27;20448;-38
2022/03/18 06:23:56;;;;;;;9.67;7.20;;;;;;;6.55;45.04;98837.09;5172393;27;20930;-39
2022/03/18 06:26:23;;;;;;;10.83;6.37;;;;;;;6.11;45.28;98840.72;5172359;27;21007;-38
2022/03/18 06:28:51;;;;;;;10.33;6.27;;;;;;;6.03;45.79;98845.97;5172780;27;20910;-39
2022/03/18 06:31:18;;;;;;;7.43;5.20;;;;;;;6.15;45.87;98851.78;5172398;27;21016;-38
2022/03/18 06:33:46;;;;;;;11.13;6.40;;;;;;;5.52;47.57;98852.84;5172686;27;20524;-38
2022/03/18 06:36:15;;;;;;;13.27;6.13;;;;;;;4.79;47.93;98850.41;5172605;27;20915;-38
2022/03/18 06:38:43;;;;;;;63.87;27.67;;;;;;;4.25;50.14;98855.56;5172243;27;20440;-36
2022/03/18 06:41:10;;;;;;;21.30;10.80;;;;;;;3.86;50.17;98853.91;5172104;27;20440;-37
2022/03/18 06:43:38;;;;;;;5.90;5.37;;;;;;;3.35;50.53;98851.69;5172140;27;20443;-38
2022/03/18 06:46:05;;;;;;;10.67;6.67;;;;;;;2.76;51.09;98851.69;5171908;27;20472;-37
2022/03/18 06:48:32;;;;;;;23.97;13.10;;;;;;;2.61;53.95;98858.28;5163651;27;20908;-39
2022/03/18 06:51:00;;;;;;;17.20;9.17;;;;;;;2.30;50.60;98855.69;5158122;27;20440;-38
2022/03/18 06:53:29;;;;;;;7.90;5.10;;;;;;;2.03;52.48;98859.75;5158033;27;20437;-38
2022/03/18 06:55:56;;;;;;;15.13;7.80;;;;;;;1.80;54.09;98859.09;5158383;27;20523;-37
2022/03/18 06:58:24;;;;;;;9.73;7.30;;;;;;;1.70;54.32;98862.59;5157910;27;20448;-37
2022/03/18 07:00:51;;;;;;;19.60;11.60;;;;;;;1.69;57.33;98867.03;5158188;27;20464;-37
2022/03/18 07:03:18;;;;;;;9.90;6.00;;;;;;;1.79;56.56;98867.91;5157859;27;21001;-39
2022/03/18 07:05:45;;;;;;;9.30;6.17;;;;;;;1.89;55.38;98877.59;5157992;27;20433;-38
2022/03/18 07:08:13;;;;;;;7.43;4.40;;;;;;;1.92;57.68;98874.75;5158062;27;20511;-38
2022/03/18 07:10:41;;;;;;;7.80;5.50;;;;;;;2.39;58.02;98865.41;5157606;27;20998;-38
2022/03/18 07:13:09;;;;;;;12.63;5.70;;;;;;;2.46;51.30;98869.13;5157987;27;20440;-38
2022/03/18 07:15:37;;;;;;;8.27;5.67;;;;;;;2.58;52.78;98882.13;5158376;27;20489;-38
2022/03/18 07:18:04;;;;;;;10.77;5.30;;;;;;;2.87;52.51;98872.53;5157866;27;20523;-37
2022/03/18 07:20:33;;;;;;;7.37;6.67;;;;;;;2.95;53.08;98876.28;5157546;27;20455;-38
2022/03/18 07:23:01;;;;;;;9.53;4.90;;;;;;;3.01;51.03;98875.72;5158292;27;20432;-38
2022/03/18 07:25:29;;;;;;;10.17;6.13;;;;;;;3.03;53.36;98879.03;5157469;27;20504;-37
2022/03/18 07:27:58;;;;;;;9.80;5.53;;;;;;;3.25;51.86;98870.06;5157245;27;20490;-37
2022/03/18 07:30:25;;;;;;;10.27;5.47;;;;;;;3.57;51.56;98872.41;5157421;27;20527;-38
2022/03/18 07:32:53;;;;;;;8.63;7.50;;;;;;;3.60;50.33;98876.53;5157601;27;20463;-38
2022/03/18 07:35:20;;;;;;;9.30;5.37;;;;;;;3.47;51.25;98876.81;5157223;27;20441;-38
2022/03/18 07:37:48;;;;;;;18.43;8.53;;;;;;;3.63;50.44;98871.81;5157176;27;20488;-38
2022/03/18 07:40:16;;;;;;;19.27;8.50;;;;;;;3.78;49.84;98874.00;5157380;27;20451;-37
2022/03/18 07:42:45;;;;;;;24.93;10.30;;;;;;;4.03;52.45;98883.88;5157146;27;20440;-38
2022/03/18 07:45:20;;;;;;;27.50;13.10;;;;;;;4.05;48.45;98889.81;5156995;27;20443;-37
2022/03/18 07:47:49;;;;;;;26.73;12.27;;;;;;;4.07;44.59;98874.75;5156752;27;20540;-38
2022/03/18 07:50:21;;;;;;;13.43;7.97;;;;;;;4.01;45.85;98880.56;5156781;27;20487;-37
2022/03/18 07:52:49;;;;;;;11.20;6.77;;;;;;;3.57;43.21;98880.28;5156800;27;20504;-38
2022/03/18 07:55:18;;;;;;;10.57;4.67;;;;;;;3.28;40.59;98882.91;5156720;27;20938;-38
2022/03/18 07:57:45;;;;;;;9.20;5.27;;;;;;;3.17;45.19;98889.13;5156808;27;20447;-38
2022/03/18 08:00:16;;;;;;;11.60;6.13;;;;;;;3.08;46.57;98897.84;5156026;27;20460;-36
2022/03/18 08:02:46;;;;;;;13.60;7.87;;;;;;;3.51;44.30;98891.34;5156959;27;20429;-38
2022/03/18 08:05:14;;;;;;;9.50;5.93;;;;;;;3.46;43.29;98885.66;5156945;27;20440;-35
2022/03/18 08:07:42;;;;;;;6.43;3.83;;;;;;;3.20;39.16;98885.41;5156372;27;21078;-35
2022/03/18 08:10:11;;;;;;;11.53;4.67;;;;;;;3.52;40.42;98895.59;5156742;27;20460;-37
2022/03/18 08:12:40;;;;;;;6.57;4.73;;;;;;;3.86;42.81;98892.50;5156362;27;20440;-38
2022/03/18 08:15:10;;;;;;;10.70;4.40;;;;;;;4.18;41.57;98892.13;5156719;27;20436;-38
2022/03/18 08:17:39;;;;;;;12.13;7.50;;;;;;;4.21;41.04;98865.53;5156259;27;20444;-39
2022/03/18 08:20:09;;;;;;;5.70;4.53;;;;;;;4.41;41.79;98883.84;5156595;27;20810;-38
2022/03/18 08:22:36;;;;;;;27.67;10.20;;;;;;;4.49;39.32;98900.56;5156456;27;20441;-34
2022/03/18 08:25:04;;;;;;;19.77;8.30;;;;;;;4.44;40.23;98880.94;5156108;27;20507;-35
2022/03/18 08:27:32;;;;;;;32.00;15.10;;;;;;;4.46;39.99;98881.63;5156360;27;20488;-35
2022/03/18 08:29:59;;;;;;;11.70;5.43;;;;;;;4.28;41.34;98892.06;5156266;27;20855;-36
2022/03/18 08:32:27;;;;;;;13.80;6.83;;;;;;;4.31;40.91;98876.84;5156022;27;20447;-35
2022/03/18 08:34:57;;;;;;;9.47;5.10;;;;;;;4.14;39.80;98885.50;5156024;27;20998;-36
2022/03/18 08:40:06;;;;;;;8.53;5.27;;;;;;;4.47;40.33;98870.97;5155540;27;20432;-35
2022/03/18 08:42:34;;;;;;;14.03;5.07;;;;;;;4.73;41.41;98872.88;5155406;27;20801;-36
2022/03/18 08:45:02;;;;;;;8.57;5.03;;;;;;;4.61;42.55;98845.97;5155774;27;20440;-35
2022/03/18 08:47:29;;;;;;;10.27;5.13;;;;;;;4.93;40.67;98871.78;5155378;27;20998;-37
2022/03/18 08:49:58;;;;;;;5.20;4.77;;;;;;;4.76;41.83;98869.97;5155788;27;20802;-35
2022/03/18 08:52:25;;;;;;;11.10;5.90;;;;;;;4.95;42.28;98863.75;5155692;27;20471;-36
2022/03/18 08:54:52;;;;;;;7.80;4.27;;;;;;;5.30;41.79;98856.81;5155721;27;20444;-35
2022/03/18 08:57:19;;;;;;;8.10;6.03;;;;;;;5.49;41.58;98855.81;5155908;27;20449;-35
2022/03/18 08:59:47;;;;;;;8.37;4.30;;;;;;;5.36;39.92;98871.19;5155603;27;20471;-35
2022/03/18 09:02:14;;;;;;;6.87;5.20;;;;;;;5.06;39.27;98867.97;5155543;27;20436;-35
2022/03/18 09:04:42;;;;;;;9.87;6.30;;;;;;;5.24;42.51;98860.06;5155819;27;20433;-35
2022/03/18 09:07:11;;;;;;;10.07;6.53;;;;;;;5.42;40.61;98865.28;5155444;27;20472;-35
2022/03/18 09:09:38;;;;;;;6.47;5.23;;;;;;;5.42;42.44;98860.03;5155413;27;20455;-35
2022/03/18 09:12:06;;;;;;;8.40;5.30;;;;;;;5.15;40.38;98853.06;5155185;27;20451;-34
2022/03/18 09:14:33;;;;;;;11.03;6.07;;;;;;;5.26;42.41;98850.19;5155656;27;20444;-35
2022/03/18 09:17:00;;;;;;;11.37;6.93;;;;;;;5.36;42.33;98858.84;5155694;27;20983;-35
2022/03/18 09:19:28;;;;;;;13.63;7.23;;;;;;;4.97;42.01;98861.78;5155292;27;20448;-35
2022/03/18 09:21:55;;;;;;;12.10;5.63;;;;;;;4.62;41.86;98852.03;5155243;27;20800;-34
2022/03/18 09:24:24;;;;;;;6.70;5.40;;;;;;;4.84;42.40;98856.06;5155593;27;20467;-35
2022/03/18 09:26:51;;;;;;;11.13;5.93;;;;;;;5.16;43.50;98850.25;5155102;27;20526;-35
2022/03/18 09:29:19;;;;;;;7.33;4.77;;;;;;;5.15;43.63;98847.81;5156010;27;20468;-35
2022/03/18 09:31:46;;;;;;;4.83;4.33;;;;;;;4.98;42.11;98854.72;5155497;27;20507;-35
2022/03/18 09:34:13;;;;;;;8.17;4.60;;;;;;;4.95;42.98;98855.00;5155271;27;20448;-35
2022/03/18 09:36:41;;;;;;;7.83;5.23;;;;;;;5.37;45.95;98847.31;5155319;27;20528;-35
2022/03/18 09:39:08;;;;;;;5.70;4.90;;;;;;;5.23;41.89;98851.31;5155037;27;20432;-35
2022/03/18 09:41:37;;;;;;;9.60;5.63;;;;;;;5.23;43.68;98848.69;5154961;27;20803;-35
2022/03/18 09:44:05;;;;;;;8.40;4.90;;;;;;;4.64;42.09;98844.84;5155321;27;20447;-34
